Time;durP1;ratioP1;P1;durP2;ratioP2;P2;SDS_P1;SDS_P2;PMS_P1;PMS_P2;Temp;Humidity;BMP_temperature;BMP_pressure;BME280_temperature;BME280_humidity;BME280_pressure;Samples;Min_cycle;Max_cycle;Signal;HPM_P1;HPM_P2
2022/08/27 00:01:20;;;;;;;5.80;2.05;;;17.60;99.90;;;;;;5145936;27;20073;-50
2022/08/27 00:03:46;;;;;;;5.57;1.63;;;17.50;99.90;;;;;;5144975;27;20451;-48
2022/08/27 00:06:14;;;;;;;3.70;1.55;;;17.50;99.90;;;;;;5150571;27;20118;-48
2022/08/27 00:08:42;;;;;;;5.93;2.00;;;17.50;99.90;;;;;;5148703;27;20039;-50
2022/08/27 00:11:08;;;;;;;5.32;2.20;;;17.50;99.90;;;;;;5145545;27;20074;-50
2022/08/27 00:13:35;;;;;;;5.13;1.75;;;17.40;99.90;;;;;;5147284;27;20117;-48
2022/08/27 00:16:01;;;;;;;4.75;1.77;;;17.40;99.90;;;;;;5147542;27;20038;-49
2022/08/27 00:18:27;;;;;;;3.33;1.90;;;17.30;99.90;;;;;;5145980;27;20049;-47
2022/08/27 00:20:53;;;;;;;5.47;2.10;;;17.30;99.90;;;;;;5144887;27;20039;-49
2022/08/27 00:23:18;;;;;;;5.45;2.25;;;17.20;99.90;;;;;;5145512;27;20038;-46
2022/08/27 00:25:44;;;;;;;6.78;2.17;;;17.10;99.90;;;;;;5147517;27;20499;-46
2022/08/27 00:28:09;;;;;;;3.80;2.10;;;17.00;99.90;;;;;;5150613;27;20039;-48
2022/08/27 00:30:35;;;;;;;6.63;2.45;;;17.00;99.90;;;;;;5145799;27;20447;-47
2022/08/27 00:33:02;;;;;;;7.20;2.47;;;17.00;99.90;;;;;;5139786;27;20052;-50
2022/08/27 00:35:28;;;;;;;5.47;2.00;;;16.90;99.90;;;;;;5138607;27;20608;-48
2022/08/27 00:37:54;;;;;;;5.15;2.17;;;16.90;99.90;;;;;;5136769;27;20720;-47
2022/08/27 00:40:22;;;;;;;4.10;2.22;;;16.90;99.90;;;;;;5134926;27;20049;-51
2022/08/27 00:42:49;;;;;;;6.60;2.25;;;16.90;99.90;;;;;;5136830;27;20142;-47
2022/08/27 00:45:17;;;;;;;6.70;2.08;;;16.90;99.90;;;;;;5137901;27;20467;-51
2022/08/27 00:47:48;;;;;;;5.10;2.08;;;16.90;99.90;;;;;;5136393;27;20038;-50
2022/08/27 00:50:20;;;;;;;4.45;2.10;;;16.80;99.90;;;;;;5136877;27;20050;-48
2022/08/27 00:52:53;;;;;;;6.65;2.22;;;16.70;99.90;;;;;;5135803;27;20043;-46
2022/08/27 00:55:23;;;;;;;6.28;2.10;;;16.70;99.90;;;;;;5139441;27;20069;-46
2022/08/27 00:58:22;;;;;;;4.05;2.10;;;16.70;99.90;;;;;;5138100;27;20066;-50
2022/08/27 01:00:48;;;;;;;4.55;2.25;;;16.70;99.90;;;;;;5122630;27;22159;-46
2022/08/27 01:03:14;;;;;;;7.32;2.38;;;16.60;99.90;;;;;;5137146;27;20522;-48
2022/08/27 01:05:42;;;;;;;6.07;2.65;;;16.60;99.90;;;;;;5119285;27;20438;-47
2022/08/27 01:08:18;;;;;;;4.50;2.20;;;16.60;99.90;;;;;;5135135;27;20575;-49
2022/08/27 01:10:45;;;;;;;4.35;2.25;;;16.50;99.90;;;;;;5138925;27;21623;-46
2022/08/27 01:13:13;;;;;;;4.18;2.35;;;16.50;99.90;;;;;;5137991;27;20048;-47
2022/08/27 01:15:40;;;;;;;5.30;2.40;;;16.60;99.90;;;;;;5140795;27;20468;-49
2022/08/27 01:18:07;;;;;;;5.55;2.63;;;16.50;99.90;;;;;;5144946;27;20043;-47
2022/08/27 01:20:53;;;;;;;4.78;2.20;;;16.60;99.90;;;;;;5144253;27;20372;-49
2022/08/27 01:23:28;;;;;;;5.65;2.65;;;16.60;99.90;;;;;;5131141;27;20501;-47
2022/08/27 01:25:53;;;;;;;6.50;2.25;;;16.60;99.90;;;;;;5147412;27;20503;-50
2022/08/27 01:28:20;;;;;;;3.78;2.10;;;16.50;99.90;;;;;;5150569;27;20035;-48
2022/08/27 01:30:46;;;;;;;5.70;2.67;;;16.60;99.90;;;;;;5146182;27;20156;-52
2022/08/27 01:33:15;;;;;;;8.10;2.35;;;16.60;99.90;;;;;;5148575;27;20288;-46
2022/08/27 01:35:44;;;;;;;6.75;2.80;;;16.50;99.90;;;;;;5149091;27;20178;-46
2022/08/27 01:38:10;;;;;;;4.32;2.28;;;16.50;99.90;;;;;;5148275;27;20940;-46
2022/08/27 01:40:36;;;;;;;5.47;2.42;;;16.50;99.90;;;;;;5148591;27;20554;-47
2022/08/27 01:43:03;;;;;;;6.35;2.97;;;16.50;99.90;;;;;;5140605;27;20035;-46
2022/08/27 01:45:33;;;;;;;5.88;2.40;;;16.50;99.90;;;;;;5139225;27;20057;-47
2022/08/27 01:48:00;;;;;;;4.15;2.40;;;16.40;99.90;;;;;;5121211;27;20049;-48
2022/08/27 01:50:34;;;;;;;6.28;2.65;;;16.40;99.90;;;;;;5121794;27;20028;-49
2022/08/27 01:53:41;;;;;;;6.28;2.78;;;16.40;99.90;;;;;;5127359;27;20048;-46
2022/08/27 01:56:26;;;;;;;4.68;2.42;;;16.30;99.90;;;;;;5104098;27;20457;-50
2022/08/27 01:58:51;;;;;;;4.95;2.40;;;16.30;99.90;;;;;;5120800;27;20279;-51
2022/08/27 02:01:17;;;;;;;8.13;2.63;;;16.30;99.90;;;;;;5123608;27;20050;-50
2022/08/27 02:03:43;;;;;;;3.92;2.28;;;16.30;99.90;;;;;;5126386;27;20043;-45
2022/08/27 02:06:10;;;;;;;6.05;2.42;;;16.30;99.90;;;;;;5130930;27;20043;-46
2022/08/27 02:08:36;;;;;;;5.55;2.53;;;16.30;99.90;;;;;;5140852;27;20043;-50
2022/08/27 02:11:14;;;;;;;6.13;2.80;;;16.30;99.90;;;;;;5140569;27;20030;-47
2022/08/27 02:13:40;;;;;;;7.95;2.55;;;16.30;99.90;;;;;;5121300;27;20396;-48
2022/08/27 02:16:06;;;;;;;4.32;2.70;;;16.30;99.90;;;;;;5134102;27;20034;-46
2022/08/27 02:18:35;;;;;;;6.50;2.58;;;16.30;99.90;;;;;;5122094;27;20031;-50
2022/08/27 02:21:01;;;;;;;5.60;2.83;;;16.30;99.90;;;;;;5120347;27;20051;-45
2022/08/27 02:23:26;;;;;;;8.40;3.03;;;16.30;99.90;;;;;;5120223;27;20043;-47
2022/08/27 02:25:52;;;;;;;5.55;2.55;;;16.30;99.90;;;;;;5103997;27;20043;-47
2022/08/27 02:28:18;;;;;;;7.57;2.90;;;16.30;99.90;;;;;;5122471;27;20052;-46
2022/08/27 02:30:44;;;;;;;7.47;2.78;;;16.30;99.90;;;;;;5120717;27;20043;-49
2022/08/27 02:33:09;;;;;;;6.40;2.90;;;16.30;99.90;;;;;;5121545;27;20046;-46
2022/08/27 02:35:38;;;;;;;5.93;2.85;;;16.30;99.90;;;;;;5085681;27;20043;-46
2022/08/27 02:38:05;;;;;;;5.43;3.15;;;16.30;99.90;;;;;;5122018;27;20460;-49
2022/08/27 02:40:31;;;;;;;5.00;2.70;;;16.20;99.90;;;;;;5126414;22;20044;-69
2022/08/27 02:42:56;;;;;;;6.30;2.42;;;16.20;99.90;;;;;;5080978;28;20044;-70
2022/08/27 02:45:22;;;;;;;7.07;2.83;;;16.20;99.90;;;;;;5081218;28;20035;-70
2022/08/27 02:47:47;;;;;;;6.70;3.15;;;16.20;99.90;;;;;;5079950;28;20044;-71
2022/08/27 02:50:14;;;;;;;6.13;2.50;;;16.30;99.90;;;;;;5080884;28;20118;-71
2022/08/27 02:52:40;;;;;;;5.68;2.70;;;16.20;99.90;;;;;;5082737;28;20032;-69
2022/08/27 02:55:07;;;;;;;6.30;2.67;;;16.20;99.90;;;;;;5082080;28;20597;-70
2022/08/27 02:57:33;;;;;;;6.15;2.83;;;16.20;99.90;;;;;;5080486;28;20170;-70
2022/08/27 02:59:59;;;;;;;4.30;2.47;;;16.20;99.90;;;;;;5084646;28;20051;-69
2022/08/27 03:02:25;;;;;;;5.57;2.35;;;16.20;99.90;;;;;;5083383;28;20047;-69
2022/08/27 03:04:50;;;;;;;5.18;2.50;;;16.30;99.90;;;;;;5081242;28;20036;-69
2022/08/27 03:07:16;;;;;;;3.70;2.28;;;16.20;99.90;;;;;;5096104;27;20123;-69
2022/08/27 03:09:41;;;;;;;4.30;2.30;;;16.20;99.90;;;;;;5082199;28;20052;-71
2022/08/27 03:12:08;;;;;;;3.20;2.20;;;16.20;99.90;;;;;;5084195;28;20399;-70
2022/08/27 03:14:33;;;;;;;6.32;2.20;;;16.20;99.90;;;;;;5084629;28;20324;-70
2022/08/27 03:18:16;;;;;;;4.68;2.30;;;16.20;99.90;;;;;;5082293;28;20035;-70
2022/08/27 03:19:45;;;;;;;8.30;2.45;;;16.20;99.90;;;;;;5083249;28;20706;-73
2022/08/27 03:22:11;;;;;;;6.78;2.53;;;16.20;99.90;;;;;;5084577;28;20032;-71
2022/08/27 03:24:39;;;;;;;7.82;2.25;;;16.10;99.90;;;;;;5088011;28;20031;-72
2022/08/27 03:27:06;;;;;;;4.10;2.20;;;16.10;99.90;;;;;;5082208;28;20059;-72
2022/08/27 03:29:33;;;;;;;3.45;2.08;;;16.10;99.90;;;;;;5082231;28;20436;-74
2022/08/27 03:32:00;;;;;;;4.93;2.25;;;16.10;99.90;;;;;;5081828;28;20044;-71
2022/08/27 03:34:25;;;;;;;4.05;2.15;;;16.10;99.90;;;;;;5083944;28;20135;-71
2022/08/27 03:36:51;;;;;;;5.50;2.10;;;16.10;99.90;;;;;;5082919;28;20085;-71
2022/08/27 03:39:17;;;;;;;4.35;1.92;;;16.10;99.90;;;;;;5090184;28;20771;-72
2022/08/27 03:41:43;;;;;;;5.97;2.10;;;16.10;99.90;;;;;;5104112;28;20056;-71
2022/08/27 03:44:08;;;;;;;3.80;1.88;;;16.10;99.90;;;;;;5106382;28;20043;-71
2022/08/27 03:46:34;;;;;;;7.03;1.92;;;16.10;99.90;;;;;;5104111;28;20032;-73
2022/08/27 03:48:59;;;;;;;3.33;1.80;;;16.10;99.90;;;;;;5099635;27;20118;-72
2022/08/27 03:51:25;;;;;;;3.63;1.92;;;16.10;99.90;;;;;;5101995;27;20519;-73
2022/08/27 03:53:50;;;;;;;5.38;1.88;;;16.10;99.90;;;;;;5104047;28;20086;-69
2022/08/27 03:56:16;;;;;;;4.68;1.88;;;16.10;99.90;;;;;;5102825;27;20043;-73
2022/08/27 03:58:42;;;;;;;3.72;1.77;;;16.00;99.90;;;;;;5099739;27;20067;-72
2022/08/27 04:01:08;;;;;;;3.50;1.67;;;15.90;99.90;;;;;;5101052;27;20036;-73
2022/08/27 04:03:34;;;;;;;3.60;1.80;;;15.90;99.90;;;;;;5100671;28;20073;-73
2022/08/27 04:06:00;;;;;;;4.43;1.55;;;15.90;99.90;;;;;;5101894;27;20141;-71
2022/08/27 04:08:26;;;;;;;5.32;2.45;;;15.90;99.90;;;;;;5101304;27;20074;-71
2022/08/27 04:10:53;;;;;;;4.22;2.00;;;15.90;99.90;;;;;;5098119;28;20058;-70
2022/08/27 04:13:20;;;;;;;5.32;1.80;;;15.90;99.90;;;;;;5095740;28;20494;-73
2022/08/27 04:15:48;;;;;;;7.32;1.90;;;15.90;99.90;;;;;;5100191;28;20456;-73
2022/08/27 04:18:15;;;;;;;7.05;1.70;;;15.90;99.90;;;;;;5102052;28;20494;-72
2022/08/27 04:20:43;;;;;;;6.78;2.45;;;15.90;99.90;;;;;;5099833;28;20046;-71
2022/08/27 04:23:08;;;;;;;6.25;1.90;;;15.80;99.90;;;;;;5100742;27;20569;-71
2022/08/27 04:25:38;;;;;;;4.88;1.98;;;15.80;99.90;;;;;;5098691;28;20055;-72
2022/08/27 04:28:04;;;;;;;6.28;2.00;;;15.80;99.90;;;;;;5100570;28;20063;-72
2022/08/27 04:30:30;;;;;;;4.57;1.70;;;15.70;99.90;;;;;;5099591;28;20259;-71
2022/08/27 04:32:57;;;;;;;4.40;1.88;;;15.70;99.90;;;;;;5065147;28;20092;-71
2022/08/27 04:35:23;;;;;;;7.00;2.08;;;15.70;99.90;;;;;;5080698;28;20058;-73
2022/08/27 04:37:48;;;;;;;6.22;2.47;;;15.60;99.90;;;;;;5099993;28;20039;-70
2022/08/27 04:40:14;;;;;;;3.10;2.00;;;15.60;99.90;;;;;;5099783;27;20058;-71
2022/08/27 04:42:40;;;;;;;4.53;2.10;;;15.60;99.90;;;;;;5082004;28;20132;-69
2022/08/27 04:45:06;;;;;;;5.38;2.20;;;15.60;99.90;;;;;;5101995;28;20555;-72
2022/08/27 04:47:32;;;;;;;3.40;2.10;;;15.70;99.90;;;;;;5101219;27;20036;-72
2022/08/27 04:49:58;;;;;;;6.60;2.53;;;15.70;99.90;;;;;;5085076;28;20059;-72
2022/08/27 04:52:24;;;;;;;8.77;2.30;;;15.70;99.90;;;;;;5104084;27;20048;-72
2022/08/27 04:54:49;;;;;;;4.90;2.50;;;15.70;99.90;;;;;;5107224;27;20497;-72
2022/08/27 04:57:15;;;;;;;7.30;2.42;;;15.70;99.90;;;;;;5107637;27;20074;-71
2022/08/27 04:59:40;;;;;;;5.40;2.67;;;15.70;99.90;;;;;;5104317;27;20032;-74
2022/08/27 05:02:08;;;;;;;5.35;2.53;;;15.70;99.90;;;;;;5105065;27;20088;-74
2022/08/27 05:04:36;;;;;;;5.15;2.20;;;15.70;99.90;;;;;;5104605;27;20502;-73
2022/08/27 05:07:02;;;;;;;5.82;2.72;;;15.80;99.90;;;;;;5090611;28;21450;-72
2022/08/27 05:09:28;;;;;;;6.75;2.65;;;15.80;99.90;;;;;;5103950;27;20486;-73
2022/08/27 05:11:54;;;;;;;4.68;2.40;;;15.80;99.90;;;;;;5103912;27;20084;-72
2022/08/27 05:14:21;;;;;;;5.05;2.10;;;15.90;99.90;;;;;;5105390;27;20146;-73
2022/08/27 05:16:46;;;;;;;3.95;2.35;;;16.00;99.90;;;;;;5104035;27;20047;-73
2022/08/27 05:19:15;;;;;;;6.35;2.80;;;16.00;99.90;;;;;;5106576;27;20447;-72
2022/08/27 05:21:46;;;;;;;6.03;2.30;;;16.10;99.90;;;;;;5109582;28;20027;-72
2022/08/27 05:24:12;;;;;;;5.85;2.58;;;16.20;99.90;;;;;;5109800;28;20085;-73
2022/08/27 05:26:38;;;;;;;5.40;2.40;;;16.20;99.90;;;;;;5109562;27;20032;-72
2022/08/27 05:29:05;;;;;;;6.13;2.42;;;16.30;99.90;;;;;;5109699;27;20050;-75
2022/08/27 05:31:31;;;;;;;4.50;1.90;;;16.40;99.90;;;;;;5091048;28;20063;-73
2022/08/27 05:33:58;;;;;;;7.38;2.20;;;16.50;99.90;;;;;;5111323;27;20405;-73
2022/08/27 05:36:33;;;;;;;5.28;2.30;;;16.60;99.90;;;;;;5111165;27;20036;-72
2022/08/27 05:39:00;;;;;;;6.88;2.13;;;16.70;99.90;;;;;;5106810;27;20091;-71
2022/08/27 05:41:28;;;;;;;;;;;16.70;99.90;;;;;;5102269;28;20118;-71
2022/08/27 05:43:56;;;;;;;6.15;2.22;;;16.70;99.90;;;;;;5100469;28;21557;-70
2022/08/27 05:46:23;;;;;;;;;;;16.80;99.90;;;;;;5100975;28;20092;-72
2022/08/27 05:48:50;;;;;;;4.38;2.03;;;16.80;99.90;;;;;;5099267;28;20023;-69
2022/08/27 05:51:19;;;;;;;6.68;2.50;;;16.80;99.90;;;;;;5083992;28;21918;-71
2022/08/27 05:53:45;;;;;;;6.30;2.35;;;16.80;99.90;;;;;;5085507;28;20040;-71
2022/08/27 05:56:19;;;;;;;4.68;2.47;;;16.80;99.90;;;;;;5087228;28;20028;-69
2022/08/27 06:01:39;;;;;;;4.18;2.25;;;16.80;99.90;;;;;;5094231;28;20056;-69
2022/08/27 06:04:06;;;;;;;4.68;2.55;;;16.80;99.90;;;;;;5093828;28;20094;-72
2022/08/27 06:06:37;;;;;;;3.70;2.25;;;16.90;99.90;;;;;;5092722;28;20051;-71
2022/08/27 06:09:04;;;;;;;3.28;1.98;;;16.90;99.90;;;;;;5093510;28;20032;-71
2022/08/27 06:11:29;;;;;;;4.43;2.15;;;16.90;99.90;;;;;;5093475;28;20051;-70
2022/08/27 06:13:56;;;;;;;6.18;2.30;;;17.00;99.90;;;;;;5083688;28;20052;-71
2022/08/27 06:16:21;;;;;;;6.63;2.72;;;17.00;99.90;;;;;;5086318;28;20686;-72
2022/08/27 06:18:48;;;;;;;6.22;2.08;;;17.10;99.90;;;;;;5080602;28;20036;-73
2022/08/27 06:21:15;;;;;;;7.97;2.58;;;17.20;99.90;;;;;;5084798;28;20040;-70
2022/08/27 06:23:41;;;;;;;4.03;1.98;;;17.20;99.90;;;;;;5081499;28;20032;-69
2022/08/27 06:26:10;;;;;;;5.82;2.03;;;17.30;99.90;;;;;;5086088;28;20180;-71
2022/08/27 06:28:37;;;;;;;4.72;2.08;;;17.40;99.90;;;;;;5085902;28;20078;-71
2022/08/27 06:31:09;;;;;;;3.50;1.60;;;17.50;99.90;;;;;;5085384;28;20048;-70
2022/08/27 06:33:36;;;;;;;4.30;1.88;;;18.90;99.90;;;;;;5084299;28;20043;-71
2022/08/27 06:36:05;;;;;;;5.32;1.92;;;19.20;99.90;;;;;;5081444;28;20043;-74
2022/08/27 06:38:31;;;;;;;6.13;1.70;;;20.40;99.90;;;;;;5082123;28;20463;-68
2022/08/27 06:40:57;;;;;;;6.60;2.28;;;21.20;99.90;;;;;;5085367;28;20491;-71
2022/08/27 06:43:23;;;;;;;3.30;1.50;;;22.20;99.90;;;;;;5065706;28;20080;-73
2022/08/27 06:45:50;;;;;;;5.28;1.63;;;22.80;99.90;;;;;;5082444;28;20031;-69
2022/08/27 06:48:16;;;;;;;8.18;1.98;;;23.50;99.90;;;;;;5084459;28;20043;-70
2022/08/27 06:50:42;;;;;;;6.90;1.73;;;23.60;99.90;;;;;;5067168;28;20157;-70
2022/08/27 06:53:08;;;;;;;6.78;1.80;;;23.80;99.90;;;;;;5088246;28;20043;-69
2022/08/27 06:55:45;;;;;;;3.55;1.58;;;24.10;99.90;;;;;;5080813;28;20503;-70
2022/08/27 06:58:11;;;;;;;7.37;1.60;;;24.30;99.90;;;;;;5085547;28;20047;-67
2022/08/27 07:00:38;;;;;;;4.20;1.60;;;24.20;99.90;;;;;;5084741;28;20053;-68
2022/08/27 07:03:05;;;;;;;3.72;1.30;;;24.20;99.90;;;;;;5080220;28;20059;-67
2022/08/27 07:05:35;;;;;;;6.25;1.50;;;24.40;99.90;;;;;;5085500;28;20070;-70
2022/08/27 07:08:02;;;;;;;4.10;1.40;;;24.50;99.90;;;;;;5081297;28;20082;-70
2022/08/27 07:10:28;;;;;;;8.47;1.50;;;24.70;99.90;;;;;;5087776;28;20044;-77
2022/08/27 07:12:54;;;;;;;4.35;1.35;;;24.70;99.90;;;;;;5082969;28;20055;-70
2022/08/27 07:15:20;;;;;;;3.20;1.42;;;24.30;99.90;;;;;;5087664;28;20490;-71
2022/08/27 07:17:46;;;;;;;5.53;1.65;;;23.40;99.90;;;;;;5072854;28;20039;-70
2022/08/27 07:20:13;;;;;;;4.28;1.45;;;23.10;99.90;;;;;;5070148;28;20039;-71
2022/08/27 07:22:40;;;;;;;5.47;1.67;;;22.70;99.90;;;;;;5079812;28;20506;-70
2022/08/27 07:25:08;;;;;;;3.63;1.38;;;22.40;99.90;;;;;;5043238;28;20214;-70
2022/08/27 07:27:34;;;;;;;3.65;1.35;;;22.00;99.90;;;;;;5085177;28;20036;-72
2022/08/27 07:30:00;;;;;;;5.15;1.50;;;21.60;99.90;;;;;;5083906;28;20443;-71
2022/08/27 07:32:26;;;;;;;4.57;1.35;;;21.00;99.90;;;;;;5085381;28;20166;-70
2022/08/27 07:34:51;;;;;;;2.88;1.10;;;21.00;99.90;;;;;;5066386;28;20414;-70
2022/08/27 07:37:17;;;;;;;2.72;1.10;;;20.90;99.90;;;;;;5073985;28;20048;-71
2022/08/27 07:39:42;;;;;;;5.07;1.35;;;20.80;99.90;;;;;;5088677;28;20101;-70
2022/08/27 07:44:52;;;;;;;4.00;1.42;;;20.60;99.90;;;;;;5075109;28;20047;-70
2022/08/27 07:47:17;;;;;;;4.30;1.67;;;20.60;99.90;;;;;;5082194;28;20037;-70
2022/08/27 07:49:43;;;;;;;7.53;1.42;;;20.60;99.90;;;;;;5081421;28;20048;-73
2022/08/27 07:52:09;;;;;;;5.10;1.23;;;20.40;99.90;;;;;;5079783;28;20043;-74
2022/08/27 07:54:34;;;;;;;6.03;1.70;;;20.60;99.90;;;;;;5088498;28;20457;-69
2022/08/27 07:57:00;;;;;;;3.55;1.20;;;20.50;99.90;;;;;;5070000;28;20054;-73
2022/08/27 07:59:26;;;;;;;4.03;1.30;;;20.70;99.90;;;;;;5091802;28;20387;-70
2022/08/27 08:01:54;;;;;;;4.60;1.38;;;20.60;99.90;;;;;;5090027;28;20094;-73
2022/08/27 08:04:21;;;;;;;5.20;1.58;;;20.80;99.90;;;;;;5087207;28;20478;-69
2022/08/27 08:06:47;;;;;;;4.40;1.33;;;20.90;99.90;;;;;;5089129;28;20044;-69
2022/08/27 08:09:13;;;;;;;4.82;1.17;;;21.00;99.90;;;;;;5091487;28;20483;-69
2022/08/27 08:11:39;;;;;;;5.75;1.60;;;20.80;99.90;;;;;;5084879;28;20040;-69
2022/08/27 08:14:04;;;;;;;5.30;1.40;;;20.90;99.90;;;;;;5089016;28;20508;-69
2022/08/27 08:16:30;;;;;;;5.68;1.50;;;21.30;99.90;;;;;;5083110;28;20032;-69
2022/08/27 08:18:55;;;;;;;5.13;1.45;;;21.50;99.90;;;;;;5063996;28;20055;-68
2022/08/27 08:21:21;;;;;;;3.25;1.08;;;21.30;99.90;;;;;;5079983;28;20070;-69
2022/08/27 08:23:48;;;;;;;5.05;1.50;;;21.30;99.90;;;;;;5078547;28;20127;-69
2022/08/27 08:26:14;;;;;;;3.13;1.13;;;21.40;99.90;;;;;;5080631;28;20093;-69
2022/08/27 08:28:39;;;;;;;5.32;1.38;;;21.10;99.90;;;;;;5083957;28;20041;-69
2022/08/27 08:31:06;;;;;;;3.83;1.00;;;21.20;99.90;;;;;;5081597;28;20036;-69
2022/08/27 08:33:32;;;;;;;3.10;1.20;;;21.50;99.90;;;;;;5082624;28;20391;-69
2022/08/27 08:36:07;;;;;;;4.90;1.13;;;21.60;99.90;;;;;;5083004;28;20039;-73
2022/08/27 08:38:33;;;;;;;3.17;1.45;;;21.80;99.90;;;;;;5083430;28;20124;-70
2022/08/27 08:40:59;;;;;;;3.20;1.20;;;21.70;99.90;;;;;;5106798;28;20478;-70
2022/08/27 08:43:30;;;;;;;4.40;1.58;;;21.50;99.90;;;;;;5107218;28;20032;-70
2022/08/27 08:46:06;;;;;;;4.25;1.30;;;21.30;99.90;;;;;;5089851;28;20085;-70
2022/08/27 08:48:34;;;;;;;4.78;1.23;;;21.30;99.90;;;;;;5088483;28;20096;-70
2022/08/27 08:51:06;;;;;;;8.05;1.80;;;21.60;99.90;;;;;;5106473;28;20035;-70
2022/08/27 08:53:37;;;;;;;4.50;1.35;;;21.90;99.90;;;;;;5104359;28;20043;-70
2022/08/27 08:56:09;;;;;;;3.50;1.20;;;22.10;99.90;;;;;;5107609;28;20675;-71
2022/08/27 08:58:37;;;;;;;4.25;1.30;;;21.60;99.90;;;;;;5105794;28;20035;-70
2022/08/27 09:01:06;;;;;;;3.92;1.30;;;21.70;99.90;;;;;;5087795;28;20510;-70
2022/08/27 09:03:34;;;;;;;5.65;1.20;;;21.30;99.90;;;;;;5107029;28;20081;-69
2022/08/27 09:06:21;;;;;;;5.10;1.60;;;21.20;99.90;;;;;;5086260;28;20075;-70
2022/08/27 09:08:47;;;;;;;4.55;1.23;;;21.70;99.90;;;;;;5109174;28;20071;-71
2022/08/27 09:11:39;;;;;;;5.13;1.42;;;22.00;99.90;;;;;;5090653;28;20146;-69
2022/08/27 09:14:15;;;;;;;4.15;1.30;;;22.00;99.90;;;;;;5101850;28;20089;-67
2022/08/27 09:16:41;;;;;;;5.40;1.30;;;21.80;99.90;;;;;;5101800;28;20048;-67
2022/08/27 09:19:07;;;;;;;4.22;1.35;;;21.40;99.90;;;;;;5112342;28;20040;-69
2022/08/27 09:21:44;;;;;;;2.88;1.00;;;21.10;99.90;;;;;;5111659;28;20534;-69
2022/08/27 09:24:39;;;;;;;;;;;20.90;99.90;;;;;;5114203;28;20068;-69
2022/08/27 09:27:05;;;;;;;4.07;1.60;;;20.90;99.90;;;;;;5091016;28;19920;-68
2022/08/27 09:29:31;;;;;;;1.77;1.38;;;21.00;99.90;;;;;;5112337;28;20063;-69
2022/08/27 09:32:03;;;;;;;4.70;1.58;;;21.10;99.90;;;;;;5093558;28;20190;-69
2022/08/27 09:34:35;;;;;;;7.13;1.63;;;21.40;99.90;;;;;;5113004;28;20042;-68
2022/08/27 09:37:09;;;;;;;5.28;1.52;;;21.40;99.90;;;;;;5116281;28;20150;-69
2022/08/27 09:39:48;;;;;;;4.97;1.30;;;21.40;99.90;;;;;;5116593;28;20044;-69
2022/08/27 09:42:32;;;;;;;6.75;1.40;;;21.50;99.90;;;;;;5116930;28;20386;-69
2022/08/27 09:44:58;;;;;;;4.35;1.50;;;21.50;99.90;;;;;;5116081;28;20097;-69
2022/08/27 09:47:25;;;;;;;5.13;1.55;;;21.70;99.90;;;;;;5116403;28;20410;-69
2022/08/27 09:50:05;;;;;;;4.13;1.30;;;21.70;99.90;;;;;;5114998;28;20100;-69
2022/08/27 09:52:35;;;;;;;5.45;1.65;;;21.60;99.90;;;;;;5098564;28;20085;-69
2022/08/27 09:55:01;;;;;;;4.40;1.42;;;21.40;99.90;;;;;;5116536;28;20048;-69
2022/08/27 09:57:34;;;;;;;3.78;1.27;;;21.30;99.90;;;;;;5098269;28;20055;-69
2022/08/27 10:00:00;;;;;;;5.63;1.15;;;21.20;99.90;;;;;;5096584;28;20035;-69
2022/08/27 10:02:26;;;;;;;6.38;1.65;;;21.00;99.90;;;;;;5097399;28;20116;-69
2022/08/27 10:04:57;;;;;;;4.70;1.50;;;20.70;99.90;;;;;;5115596;28;20097;-69
2022/08/27 10:07:38;;;;;;;4.60;1.60;;;20.70;99.90;;;;;;5116044;28;20456;-69
2022/08/27 10:10:15;;;;;;;6.68;1.52;;;20.50;99.90;;;;;;5116342;28;20044;-69
2022/08/27 10:12:50;;;;;;;4.53;1.67;;;20.30;99.90;;;;;;5116162;28;20058;-69
2022/08/27 10:15:15;;;;;;;3.20;1.30;;;20.30;99.90;;;;;;5115111;28;20038;-69
2022/08/27 10:18:23;;;;;;;7.32;1.50;;;20.50;99.90;;;;;;5115864;28;20039;-69
2022/08/27 10:21:07;;;;;;;6.15;1.70;;;20.50;99.90;;;;;;4996056;28;20045;-68
2022/08/27 10:23:44;;;;;;;6.13;1.52;;;20.40;99.90;;;;;;5013148;28;20413;-68
2022/08/27 10:26:31;;;;;;;6.40;2.10;;;20.50;99.90;;;;;;5013487;28;20050;-68
2022/08/27 10:29:10;;;;;;;7.28;1.70;;;20.80;99.90;;;;;;5013338;28;20386;-69
2022/08/27 10:31:39;;;;;;;4.30;1.70;;;20.70;99.90;;;;;;5006485;28;20471;-69
2022/08/27 10:34:43;;;;;;;5.43;1.70;;;20.80;99.90;;;;;;5005078;28;20416;-71
2022/08/27 10:37:28;;;;;;;4.90;1.60;;;21.00;99.90;;;;;;4981724;28;20066;-69
2022/08/27 10:40:12;;;;;;;5.00;1.40;;;21.10;99.90;;;;;;5003254;28;20208;-70
2022/08/27 10:42:49;;;;;;;4.65;1.52;;;21.30;99.90;;;;;;5008633;28;20065;-68
2022/08/27 10:45:41;;;;;;;3.50;1.42;;;21.50;99.90;;;;;;4995037;28;20080;-69
2022/08/27 10:48:24;;;;;;;5.70;1.50;;;21.50;99.90;;;;;;5006588;28;20049;-69
2022/08/27 10:51:08;;;;;;;7.38;1.80;;;21.40;99.90;;;;;;4994949;28;20060;-69
2022/08/27 10:54:00;;;;;;;4.68;1.58;;;21.60;99.90;;;;;;5010557;28;20056;-69
2022/08/27 10:56:29;;;;;;;7.22;1.67;;;22.30;99.90;;;;;;5090010;28;20051;-69
2022/08/27 10:59:23;;;;;;;3.97;1.50;;;22.70;99.90;;;;;;5077864;28;20044;-69
2022/08/27 11:02:18;;;;;;;4.13;1.30;;;22.90;99.90;;;;;;5092888;28;20498;-69
2022/08/27 11:04:52;;;;;;;4.95;1.27;;;23.00;99.90;;;;;;5059378;28;20615;-69
2022/08/27 11:07:32;;;;;;;4.88;1.33;;;23.20;99.90;;;;;;5091645;28;20040;-69
2022/08/27 11:10:19;;;;;;;2.92;0.90;;;23.20;99.80;;;;;;5093244;28;20397;-68
2022/08/27 11:12:49;;;;;;;3.63;1.10;;;22.90;99.50;;;;;;5083911;28;20123;-69
2022/08/27 11:15:33;;;;;;;5.32;1.40;;;22.80;99.90;;;;;;5093237;28;20036;-69
2022/08/27 11:18:38;;;;;;;6.05;1.45;;;22.80;99.90;;;;;;5088097;28;20048;-71
2022/08/27 11:21:28;;;;;;;5.43;1.48;;;22.70;99.90;;;;;;5066330;28;20425;-72
2022/08/27 11:24:16;;;;;;;5.55;1.63;;;22.60;99.90;;;;;;5088829;28;20115;-70
2022/08/27 11:26:43;;;;;;;5.35;1.10;;;23.00;99.90;;;;;;5091960;28;20488;-69
2022/08/27 11:29:31;;;;;;;3.83;1.05;;;22.50;99.90;;;;;;5089972;28;20044;-69
2022/08/27 11:32:34;;;;;;;6.15;1.13;;;22.40;99.90;;;;;;5094132;28;20040;-69
2022/08/27 11:35:13;;;;;;;5.00;1.55;;;22.10;99.90;;;;;;5091410;28;20048;-69
2022/08/27 11:37:47;;;;;;;5.38;1.75;;;21.80;99.90;;;;;;5094382;28;20036;-69
2022/08/27 11:40:31;;;;;;;5.22;1.42;;;21.70;99.90;;;;;;5107616;28;20055;-69
2022/08/27 11:43:04;;;;;;;5.70;1.67;;;21.80;99.90;;;;;;5113888;28;20056;-69
2022/08/27 11:45:37;;;;;;;5.22;1.67;;;21.90;99.90;;;;;;5114142;28;20043;-69
2022/08/27 11:48:25;;;;;;;3.80;1.30;;;22.00;99.90;;;;;;5078848;28;20075;-69
2022/08/27 11:51:03;;;;;;;4.95;1.20;;;21.90;99.90;;;;;;5095468;28;20136;-69
2022/08/27 11:53:32;;;;;;;4.30;1.30;;;22.20;99.90;;;;;;5112986;28;20043;-70
2022/08/27 11:56:10;;;;;;;4.43;1.42;;;22.30;99.90;;;;;;5095863;28;20497;-70
2022/08/27 11:58:36;;;;;;;3.10;1.23;;;22.70;99.90;;;;;;5112545;28;20044;-69
2022/08/27 12:01:13;;;;;;;3.95;1.30;;;22.80;99.90;;;;;;5113689;28;20107;-69
2022/08/27 12:03:39;;;;;;;4.53;1.23;;;22.50;99.90;;;;;;5113437;28;20044;-69
2022/08/27 12:06:17;;;;;;;5.75;1.20;;;22.80;99.90;;;;;;5112793;28;20486;-69
2022/08/27 12:08:43;;;;;;;3.78;1.30;;;23.00;99.90;;;;;;5095508;28;20055;-69
2022/08/27 12:11:40;;;;;;;4.07;1.27;;;22.70;99.70;;;;;;5113884;28;20043;-68
2022/08/27 12:14:31;;;;;;;6.93;1.45;;;22.60;99.80;;;;;;5112263;28;20090;-69
2022/08/27 12:17:04;;;;;;;8.48;2.30;;;22.70;99.90;;;;;;5093088;28;20399;-69
2022/08/27 12:20:00;;;;;;;3.33;1.35;;;22.80;99.90;;;;;;5093227;28;20093;-69
2022/08/27 12:25:30;;;;;;;4.07;1.27;;;22.70;99.90;;;;;;5074962;28;20048;-69
2022/08/27 12:28:01;;;;;;;7.03;1.52;;;22.60;99.70;;;;;;5092790;28;20380;-69
2022/08/27 12:30:40;;;;;;;3.70;1.15;;;22.90;99.60;;;;;;5100088;28;20056;-69
2022/08/27 12:33:42;;;;;;;4.18;1.50;;;23.20;99.50;;;;;;5112601;28;20492;-69
2022/08/27 12:36:21;;;;;;;5.63;1.60;;;23.20;99.60;;;;;;5112480;28;20075;-69
2022/08/27 12:38:49;;;;;;;5.82;1.50;;;23.50;98.50;;;;;;5112886;28;20050;-69
2022/08/27 12:41:30;;;;;;;4.40;1.30;;;23.50;98.80;;;;;;5113919;28;20050;-68
2022/08/27 12:44:26;;;;;;;8.13;1.55;;;23.20;98.60;;;;;;5113078;28;20112;-69
2022/08/27 12:47:06;;;;;;;6.97;1.58;;;23.20;98.70;;;;;;5100152;28;20131;-69
2022/08/27 12:49:47;;;;;;;5.57;1.50;;;23.00;99.00;;;;;;5112325;28;20054;-69
2022/08/27 12:52:31;;;;;;;4.93;1.25;;;23.10;98.40;;;;;;5112829;28;20042;-69
2022/08/27 12:55:07;;;;;;;4.03;1.30;;;23.50;98.10;;;;;;5113194;28;20442;-69
2022/08/27 12:58:12;;;;;;;6.05;1.52;;;23.30;98.80;;;;;;5113038;28;20525;-70
2022/08/27 13:01:05;;;;;;;3.90;1.25;;;23.60;98.10;;;;;;5068795;28;20529;-69
2022/08/27 13:03:36;;;;;;;3.80;1.20;;;23.40;98.10;;;;;;5111583;28;20106;-69
2022/08/27 13:06:13;;;;;;;5.32;1.23;;;23.00;97.50;;;;;;5113262;28;20048;-68
2022/08/27 13:08:38;;;;;;;4.35;1.50;;;23.10;97.80;;;;;;5112906;28;20402;-68
2022/08/27 13:11:23;;;;;;;3.95;1.25;;;23.00;97.70;;;;;;5116524;28;20044;-69
2022/08/27 13:13:49;;;;;;;4.63;1.20;;;22.90;98.70;;;;;;5119980;28;20047;-69
2022/08/27 13:16:20;;;;;;;4.00;1.70;;;23.00;98.60;;;;;;5080658;28;20379;-68